Time;durP1;ratioP1;P1;durP2;ratioP2;P2;SDS_P1;SDS_P2;PMS_P1;PMS_P2;Temp;Humidity;BMP_temperature;BMP_pressure;BME280_temperature;BME280_humidity;BME280_pressure;Samples;Min_cycle;Max_cycle;Signal;HPM_P1;HPM_P2
2022/07/19 10:56:39;;;;;;;0.20;0.20;;;;;;;;;;5105256;27;20373;-83
2022/07/19 10:59:07;;;;;;;0.10;0.10;;;;;;;;;;5081493;28;20426;-80
2022/07/19 11:01:33;;;;;;;0.10;0.10;;;;;;;;;;5093708;28;20447;-81
2022/07/19 11:04:26;;;;;;;0.10;0.10;;;;;;;;;;5087170;28;20501;-82
2022/07/19 11:07:09;;;;;;;0.30;0.30;;;;;;;;;;5074028;28;20447;-82
2022/07/19 11:10:03;;;;;;;0.15;0.13;;;;;;;;;;5074284;28;20436;-82
2022/07/19 11:12:29;;;;;;;0.40;0.40;;;;;;;;;;5066465;28;20501;-82
2022/07/19 11:14:56;;;;;;;0.22;0.13;;;;;;;;;;5100881;28;20482;-81
2022/07/19 11:17:23;;;;;;;0.10;0.10;;;;;;;;;;5121488;27;20427;-82
2022/07/19 11:20:04;;;;;;;0.25;0.25;;;;;;;;;;5082688;28;20408;-83
2022/07/19 11:22:49;;;;;;;0.10;0.10;;;;;;;;;;5112841;27;20438;-83
2022/07/19 11:25:16;;;;;;;0.10;0.10;;;;;;;;;;5115757;27;20425;-82
2022/07/19 11:27:47;;;;;;;0.10;0.10;;;;;;;;;;5102577;28;20420;-83
2022/07/19 11:30:14;;;;;;;0.10;0.10;;;;;;;;;;5074388;28;20479;-82
2022/07/19 11:32:44;;;;;;;0.10;0.10;;;;;;;;;;5067391;28;20416;-82
2022/07/19 11:35:12;;;;;;;0.10;0.10;;;;;;;;;;5082668;28;20458;-82
2022/07/19 11:37:41;;;;;;;0.10;0.10;;;;;;;;;;5114597;28;20451;-83
2022/07/19 11:40:08;;;;;;;0.10;0.10;;;;;;;;;;5080078;28;20488;-82
2022/07/19 11:42:38;;;;;;;0.10;0.10;;;;;;;;;;5087717;28;20448;-82
2022/07/19 11:45:08;;;;;;;0.10;0.10;;;;;;;;;;5090102;28;20470;-82
2022/07/19 11:47:34;;;;;;;0.10;0.10;;;;;;;;;;5067274;28;20412;-83
2022/07/19 11:50:04;;;;;;;0.10;0.10;;;;;;;;;;5118596;27;20423;-82
2022/07/19 11:52:41;;;;;;;0.25;0.25;;;;;;;;;;5111912;27;20424;-82
2022/07/19 11:55:07;;;;;;;0.10;0.10;;;;;;;;;;5095533;28;20460;-81
2022/07/19 11:57:33;;;;;;;0.17;0.17;;;;;;;;;;5083611;28;20775;-82
2022/07/19 11:59:59;;;;;;;0.10;0.10;;;;;;;;;;5083684;28;20531;-81
2022/07/19 12:02:26;;;;;;;0.10;0.10;;;;;;;;;;5086412;28;20942;-82
2022/07/19 12:04:52;;;;;;;0.60;0.52;;;;;;;;;;5081080;28;20903;-82
2022/07/19 12:07:19;;;;;;;0.10;0.10;;;;;;;;;;5084204;28;20425;-82
2022/07/19 12:09:45;;;;;;;0.20;0.20;;;;;;;;;;5072136;28;20449;-86
2022/07/19 12:12:15;;;;;;;0.25;0.17;;;;;;;;;;5074414;28;20437;-84
2022/07/19 12:14:41;;;;;;;0.10;0.10;;;;;;;;;;5071252;28;20994;-82
2022/07/19 12:17:18;;;;;;;0.10;0.10;;;;;;;;;;5064087;28;20421;-83
2022/07/19 12:19:46;;;;;;;0.20;0.20;;;;;;;;;;5068050;28;20412;-81
2022/07/19 12:22:27;;;;;;;0.10;0.10;;;;;;;;;;5068627;28;20421;-82
2022/07/19 12:24:54;;;;;;;0.10;0.10;;;;;;;;;;5065062;28;20420;-85
2022/07/19 12:27:20;;;;;;;0.95;0.20;;;;;;;;;;5071586;28;20427;-84
2022/07/19 12:29:50;;;;;;;0.10;0.10;;;;;;;;;;5073997;28;20427;-86
2022/07/19 12:32:26;;;;;;;0.30;0.30;;;;;;;;;;5058809;28;20429;-85
2022/07/19 12:34:57;;;;;;;0.47;0.38;;;;;;;;;;5058166;28;20909;-86
2022/07/19 12:37:24;;;;;;;0.10;0.10;;;;;;;;;;5053652;28;20401;-86
2022/07/19 12:40:06;;;;;;;0.20;0.20;;;;;;;;;;5091695;27;20448;-85
2022/07/19 12:42:40;;;;;;;0.10;0.10;;;;;;;;;;5061609;28;20495;-87
2022/07/19 12:45:07;;;;;;;0.10;0.10;;;;;;;;;;5085597;28;20966;-88
2022/07/19 12:47:33;;;;;;;0.20;0.20;;;;;;;;;;5075631;28;20413;-84
2022/07/19 12:49:59;;;;;;;0.10;0.10;;;;;;;;;;5092504;28;20422;-88
2022/07/19 12:52:25;;;;;;;0.10;0.10;;;;;;;;;;5067099;28;20421;-87
2022/07/19 12:54:51;;;;;;;0.10;0.10;;;;;;;;;;5059849;28;20514;-88
2022/07/19 12:57:18;;;;;;;0.10;0.10;;;;;;;;;;5063304;28;20491;-82
2022/07/19 12:59:44;;;;;;;0.10;0.10;;;;;;;;;;5073990;28;20454;-88
2022/07/19 13:02:11;;;;;;;0.10;0.10;;;;;;;;;;5080661;28;20432;-88
2022/07/19 13:04:38;;;;;;;0.10;0.10;;;;;;;;;;5087891;28;20452;-86
2022/07/19 13:07:05;;;;;;;0.20;0.20;;;;;;;;;;5090847;28;20967;-90
2022/07/19 13:09:31;;;;;;;0.10;0.10;;;;;;;;;;5084004;28;20493;-90
2022/07/19 13:11:57;;;;;;;0.25;0.25;;;;;;;;;;5071281;28;20453;-84
2022/07/19 13:14:23;;;;;;;0.10;0.10;;;;;;;;;;5093423;28;20434;-87
2022/07/19 13:16:50;;;;;;;0.10;0.10;;;;;;;;;;5072602;28;20782;-91
2022/07/19 13:19:16;;;;;;;0.10;0.10;;;;;;;;;;5074995;28;20462;-89
2022/07/19 13:21:42;;;;;;;0.40;0.30;;;;;;;;;;5086631;28;20425;-88
2022/07/19 13:24:08;;;;;;;0.10;0.10;;;;;;;;;;5071587;28;21336;-86
2022/07/19 13:26:34;;;;;;;0.10;0.10;;;;;;;;;;5085489;28;20455;-88
2022/07/19 13:29:00;;;;;;;0.10;0.10;;;;;;;;;;5071220;28;20428;-90
2022/07/19 13:31:26;;;;;;;1.70;0.20;;;;;;;;;;5088082;28;20434;-90
2022/07/19 13:33:52;;;;;;;0.10;0.10;;;;;;;;;;5071970;28;20894;-88
2022/07/19 13:36:19;;;;;;;0.30;0.30;;;;;;;;;;5087160;28;20484;-88
2022/07/19 13:38:45;;;;;;;0.15;0.15;;;;;;;;;;5077213;28;20411;-90
2022/07/19 13:41:11;;;;;;;0.10;0.10;;;;;;;;;;5110581;27;20412;-89
2022/07/19 13:43:37;;;;;;;0.10;0.10;;;;;;;;;;5082090;28;20424;-90
2022/07/19 13:46:03;;;;;;;0.20;0.20;;;;;;;;;;5070652;28;20418;-90
2022/07/19 13:48:29;;;;;;;0.10;0.10;;;;;;;;;;5076372;28;20414;-89
2022/07/19 13:50:55;;;;;;;0.10;0.10;;;;;;;;;;5101685;28;20910;-91
2022/07/19 13:53:21;;;;;;;0.32;0.25;;;;;;;;;;5079438;28;20421;-92
2022/07/19 13:55:47;;;;;;;0.20;0.20;;;;;;;;;;5104633;28;20802;-91
2022/07/19 13:58:14;;;;;;;0.10;0.10;;;;;;;;;;5103030;28;20424;-85
2022/07/19 14:00:40;;;;;;;0.08;0.08;;;;;;;;;;5104328;28;20416;-91
2022/07/19 14:03:06;;;;;;;0.30;0.30;;;;;;;;;;5094618;28;20798;-92
2022/07/19 14:05:32;;;;;;;0.10;0.10;;;;;;;;;;5077426;28;20760;-87
2022/07/19 14:07:58;;;;;;;0.17;0.13;;;;;;;;;;5083877;28;20410;-85
2022/07/19 14:10:24;;;;;;;0.40;0.30;;;;;;;;;;5085043;28;20913;-87
2022/07/19 14:12:50;;;;;;;0.10;0.10;;;;;;;;;;5071588;28;20498;-86
2022/07/19 14:15:16;;;;;;;0.10;0.10;;;;;;;;;;5071283;28;20419;-87
2022/07/19 14:17:42;;;;;;;0.30;0.30;;;;;;;;;;5073224;28;20845;-83
2022/07/19 14:20:08;;;;;;;0.10;0.10;;;;;;;;;;5080637;28;20419;-84
2022/07/19 14:22:34;;;;;;;1.90;0.70;;;;;;;;;;5089595;28;20894;-86
2022/07/19 14:25:01;;;;;;;0.13;0.13;;;;;;;;;;5108718;28;20451;-87
2022/07/19 14:27:27;;;;;;;0.10;0.10;;;;;;;;;;5097750;28;20411;-87
2022/07/19 14:29:53;;;;;;;0.10;0.10;;;;;;;;;;5104159;28;20440;-87
2022/07/19 14:32:19;;;;;;;0.50;0.50;;;;;;;;;;5087782;28;20486;-88
2022/07/19 14:34:45;;;;;;;0.10;0.10;;;;;;;;;;5085411;28;20461;-87
2022/07/19 14:37:11;;;;;;;0.10;0.10;;;;;;;;;;5093173;28;20413;-83
2022/07/19 14:39:37;;;;;;;0.30;0.30;;;;;;;;;;5086704;28;20428;-83
2022/07/19 14:42:03;;;;;;;0.20;0.20;;;;;;;;;;5090995;28;20415;-82
2022/07/19 14:44:29;;;;;;;0.40;0.20;;;;;;;;;;5094645;28;20464;-80
2022/07/19 14:46:56;;;;;;;0.10;0.10;;;;;;;;;;5068030;28;20761;-81
2022/07/19 14:49:22;;;;;;;0.30;0.30;;;;;;;;;;5089944;28;20429;-80
2022/07/19 14:51:48;;;;;;;0.20;0.20;;;;;;;;;;5088532;28;20869;-83
2022/07/19 14:54:14;;;;;;;0.10;0.10;;;;;;;;;;5081766;28;20420;-81
2022/07/19 14:56:41;;;;;;;0.15;0.15;;;;;;;;;;5086303;28;20750;-81
2022/07/19 14:59:07;;;;;;;0.10;0.10;;;;;;;;;;5076344;28;20846;-80
2022/07/19 15:01:33;;;;;;;0.10;0.10;;;;;;;;;;5070463;28;20801;-79
2022/07/19 15:03:59;;;;;;;0.10;0.10;;;;;;;;;;5074430;28;20415;-82
2022/07/19 15:06:25;;;;;;;0.20;0.20;;;;;;;;;;5086984;28;21083;-81
2022/07/19 15:08:51;;;;;;;0.10;0.10;;;;;;;;;;5091588;28;20500;-82
2022/07/19 15:11:18;;;;;;;0.55;0.55;;;;;;;;;;5089057;28;20497;-79
2022/07/19 15:13:44;;;;;;;0.20;0.20;;;;;;;;;;5088468;28;20866;-79
2022/07/19 15:16:10;;;;;;;0.10;0.10;;;;;;;;;;5059062;28;20421;-79
2022/07/19 15:18:36;;;;;;;0.20;0.20;;;;;;;;;;5083737;28;20508;-81
2022/07/19 15:21:02;;;;;;;0.20;0.20;;;;;;;;;;5076552;28;20411;-80
2022/07/19 15:23:28;;;;;;;0.10;0.10;;;;;;;;;;5085891;28;20489;-78
2022/07/19 15:25:54;;;;;;;0.10;0.10;;;;;;;;;;5083545;28;20416;-77
2022/07/19 15:28:20;;;;;;;0.10;0.10;;;;;;;;;;5087604;28;20429;-78
2022/07/19 15:30:47;;;;;;;0.10;0.10;;;;;;;;;;5091881;28;20504;-79
2022/07/19 15:33:13;;;;;;;0.20;0.20;;;;;;;;;;5077009;28;20415;-81
2022/07/19 15:35:39;;;;;;;0.10;0.10;;;;;;;;;;5114750;28;20430;-79
2022/07/19 15:38:05;;;;;;;0.10;0.10;;;;;;;;;;5086177;28;20443;-81
2022/07/19 15:40:31;;;;;;;0.32;0.30;;;;;;;;;;5088369;28;20422;-77
2022/07/19 15:42:57;;;;;;;0.40;0.30;;;;;;;;;;5110917;27;20744;-80
2022/07/19 15:45:23;;;;;;;0.50;0.20;;;;;;;;;;5085207;28;20746;-81
2022/07/19 15:47:50;;;;;;;0.10;0.10;;;;;;;;;;5093119;28;20920;-82
2022/07/19 15:50:16;;;;;;;0.20;0.20;;;;;;;;;;5114770;27;20411;-82
2022/07/19 15:52:43;;;;;;;0.10;0.10;;;;;;;;;;5091798;28;20578;-83
2022/07/19 15:55:10;;;;;;;0.40;0.30;;;;;;;;;;5074165;28;20565;-83
2022/07/19 15:57:36;;;;;;;0.20;0.20;;;;;;;;;;5081092;28;20423;-81
2022/07/19 16:00:04;;;;;;;0.17;0.17;;;;;;;;;;5097684;28;20500;-80
2022/07/19 16:02:30;;;;;;;0.10;0.10;;;;;;;;;;5092507;28;20445;-82
2022/07/19 16:04:56;;;;;;;0.13;0.13;;;;;;;;;;5095140;28;20484;-81
2022/07/19 16:07:22;;;;;;;0.10;0.10;;;;;;;;;;5093220;28;20495;-84
2022/07/19 16:09:49;;;;;;;0.10;0.10;;;;;;;;;;5094334;28;20429;-83
2022/07/19 16:12:15;;;;;;;0.10;0.10;;;;;;;;;;5078017;28;20469;-83
2022/07/19 16:14:43;;;;;;;1.20;0.30;;;;;;;;;;5073240;28;20432;-82
2022/07/19 16:17:09;;;;;;;0.10;0.10;;;;;;;;;;5076646;28;20885;-82
2022/07/19 16:19:35;;;;;;;0.10;0.10;;;;;;;;;;5088535;28;20412;-80
2022/07/19 16:22:01;;;;;;;0.40;0.40;;;;;;;;;;5089039;28;20422;-81
2022/07/19 16:24:27;;;;;;;0.20;0.20;;;;;;;;;;5073612;28;20415;-82
2022/07/19 16:26:53;;;;;;;0.10;0.10;;;;;;;;;;5090801;28;20921;-84
2022/07/19 16:29:19;;;;;;;0.10;0.10;;;;;;;;;;5096737;28;20446;-83
2022/07/19 16:31:45;;;;;;;0.10;0.10;;;;;;;;;;5089058;28;20870;-87
2022/07/19 16:34:12;;;;;;;0.10;0.10;;;;;;;;;;5092175;28;20941;-86
2022/07/19 16:36:38;;;;;;;0.10;0.10;;;;;;;;;;5094214;28;20431;-83
2022/07/19 16:39:06;;;;;;;0.20;0.20;;;;;;;;;;5103184;28;20449;-84
2022/07/19 16:41:32;;;;;;;0.50;0.30;;;;;;;;;;5085527;28;20425;-82
2022/07/19 16:43:58;;;;;;;0.20;0.20;;;;;;;;;;5085285;28;20421;-87
2022/07/19 16:46:24;;;;;;;0.10;0.10;;;;;;;;;;5089522;28;20428;-90
2022/07/19 16:48:50;;;;;;;0.10;0.10;;;;;;;;;;5093627;28;20414;-83
2022/07/19 16:51:17;;;;;;;0.10;0.10;;;;;;;;;;5097837;28;20418;-84
2022/07/19 16:53:43;;;;;;;0.20;0.20;;;;;;;;;;5072528;28;20445;-87
2022/07/19 16:56:09;;;;;;;0.10;0.10;;;;;;;;;;5079950;28;20768;-92
2022/07/19 16:58:35;;;;;;;0.10;0.10;;;;;;;;;;5091488;28;20411;-87
2022/07/19 17:01:01;;;;;;;0.35;0.30;;;;;;;;;;5098985;28;20757;-83
2022/07/19 17:03:28;;;;;;;0.28;0.20;;;;;;;;;;5094605;28;20896;-83
2022/07/19 17:05:54;;;;;;;0.10;0.10;;;;;;;;;;5093959;28;20467;-86
2022/07/19 17:08:21;;;;;;;0.20;0.10;;;;;;;;;;5086760;28;20953;-86
2022/07/19 17:10:47;;;;;;;0.10;0.10;;;;;;;;;;5107295;28;20412;-86
2022/07/19 17:13:13;;;;;;;0.10;0.10;;;;;;;;;;5080141;28;20495;-85
2022/07/19 17:15:39;;;;;;;0.10;0.10;;;;;;;;;;5073701;28;20426;-83
2022/07/19 17:18:05;;;;;;;0.10;0.10;;;;;;;;;;5076941;28;20416;-79
2022/07/19 17:20:31;;;;;;;0.50;0.20;;;;;;;;;;5104530;28;20539;-83
2022/07/19 17:22:58;;;;;;;0.10;0.10;;;;;;;;;;5061874;28;20434;-82
2022/07/19 17:25:24;;;;;;;0.10;0.10;;;;;;;;;;5089889;28;20418;-84
2022/07/19 17:27:50;;;;;;;0.10;0.10;;;;;;;;;;5080276;28;20737;-82
2022/07/19 17:30:17;;;;;;;0.10;0.10;;;;;;;;;;5080929;28;20419;-83
2022/07/19 17:32:43;;;;;;;0.10;0.10;;;;;;;;;;5083655;28;20441;-85
2022/07/19 17:35:09;;;;;;;0.13;0.13;;;;;;;;;;5088040;28;20433;-83
2022/07/19 17:37:35;;;;;;;0.20;0.20;;;;;;;;;;5090593;28;20566;-83
2022/07/19 17:40:01;;;;;;;0.20;0.20;;;;;;;;;;5072390;28;20422;-82
2022/07/19 17:42:27;;;;;;;0.10;0.10;;;;;;;;;;5065059;28;20414;-82
2022/07/19 17:44:54;;;;;;;0.10;0.10;;;;;;;;;;5089035;28;20430;-82
2022/07/19 17:47:20;;;;;;;0.10;0.10;;;;;;;;;;5089550;28;20419;-83
2022/07/19 17:49:46;;;;;;;0.10;0.10;;;;;;;;;;5090490;28;20741;-84
2022/07/19 17:52:12;;;;;;;0.10;0.10;;;;;;;;;;5089504;28;20414;-85
2022/07/19 17:54:38;;;;;;;0.40;0.20;;;;;;;;;;5072303;28;20483;-83
2022/07/19 17:57:05;;;;;;;0.10;0.10;;;;;;;;;;5090193;28;20959;-82
2022/07/19 17:59:31;;;;;;;0.10;0.10;;;;;;;;;;5090467;28;20429;-82
2022/07/19 18:01:57;;;;;;;0.10;0.10;;;;;;;;;;5083475;28;20423;-83
2022/07/19 18:04:23;;;;;;;0.10;0.10;;;;;;;;;;5077767;28;20983;-83
2022/07/19 18:06:50;;;;;;;0.10;0.10;;;;;;;;;;5088244;28;20884;-82
2022/07/19 18:09:16;;;;;;;0.10;0.10;;;;;;;;;;5089868;28;20884;-88
2022/07/19 18:11:42;;;;;;;0.10;0.10;;;;;;;;;;5092130;28;20420;-86
